createdAt,value
2022-12-03T00:01:04.876Z,101544.78
2022-12-03T00:06:07.996Z,101547.89
2022-12-03T00:11:10.928Z,101545.66
2022-12-03T00:16:13.979Z,101543.31
2022-12-03T00:21:16.895Z,101540.45
2022-12-03T00:26:19.925Z,101531.92
2022-12-03T00:31:23.660Z,101531.08
2022-12-03T00:36:26.611Z,101527.65
2022-12-03T00:41:29.312Z,101527.49
2022-12-03T00:46:32.173Z,101523.00
2022-12-03T00:51:35.916Z,101521.69
2022-12-03T00:56:38.795Z,101520.89
2022-12-03T01:01:41.577Z,101519.03
2022-12-03T01:06:44.471Z,101512.95
2022-12-03T01:11:47.433Z,101512.48
2022-12-03T01:16:50.264Z,101511.05
2022-12-03T01:21:53.080Z,101504.95
2022-12-03T01:26:56.814Z,101501.04
2022-12-03T01:32:17.569Z,101502.27
2022-12-03T01:37:23.999Z,101506.90
2022-12-03T01:42:35.171Z,101505.86
2022-12-03T01:47:38.423Z,101503.55
2022-12-03T01:52:42.205Z,101501.62
2022-12-03T01:57:51.403Z,101500.34
2022-12-03T02:02:58.918Z,101498.54
2022-12-03T02:08:01.825Z,101487.48
2022-12-03T02:13:08.715Z,101483.34
2022-12-03T02:18:12.056Z,101484.14
2022-12-03T02:23:29.769Z,101479.70
2022-12-03T02:28:32.964Z,101478.20
2022-12-03T02:33:35.794Z,101471.39
2022-12-03T02:38:39.629Z,101469.35
2022-12-03T02:43:42.372Z,101463.73
2022-12-03T02:48:45.255Z,101465.63
2022-12-03T02:53:50.765Z,101460.52
2022-12-03T02:58:57.889Z,101459.84
2022-12-03T03:04:02.740Z,101462.55
2022-12-03T03:09:05.668Z,101460.48
2022-12-03T03:14:08.551Z,101459.65
2022-12-03T03:19:11.326Z,101457.90
2022-12-03T03:24:14.152Z,101458.60
2022-12-03T03:29:17.444Z,101455.33
2022-12-03T03:34:20.604Z,101450.91
2022-12-03T03:39:23.390Z,101450.89
2022-12-03T03:44:26.815Z,101443.18
2022-12-03T03:49:29.698Z,101442.83
2022-12-03T03:54:32.960Z,101442.31
2022-12-03T03:59:35.710Z,101441.00
2022-12-03T04:04:38.534Z,101439.59
2022-12-03T04:09:41.691Z,101441.80
2022-12-03T04:14:44.466Z,101444.42
2022-12-03T04:19:47.225Z,101433.42
2022-12-03T04:24:49.974Z,101426.04
2022-12-03T04:29:52.825Z,101430.20
2022-12-03T04:35:14.381Z,101427.67
2022-12-03T04:40:55.642Z,101428.70
2022-12-03T04:45:59.026Z,101423.36
2022-12-03T04:51:01.781Z,101424.35
2022-12-03T04:56:04.706Z,101424.54
2022-12-03T05:01:07.725Z,101426.63
2022-12-03T05:06:10.600Z,101422.92
2022-12-03T05:11:13.405Z,101419.38
2022-12-03T05:16:16.231Z,101421.96
2022-12-03T05:21:19.110Z,101424.17
2022-12-03T05:26:22.393Z,101423.39
2022-12-03T05:31:25.272Z,101420.38
2022-12-03T05:36:28.642Z,101419.70
2022-12-03T05:41:50.273Z,101415.32
2022-12-03T05:46:53.086Z,101414.67
2022-12-03T05:51:58.639Z,101410.71
2022-12-03T05:57:01.861Z,101408.35
2022-12-03T06:02:04.732Z,101408.42
2022-12-03T06:07:13.615Z,101407.25
2022-12-03T06:12:17.229Z,101404.66
2022-12-03T06:17:20.033Z,101407.14
2022-12-03T06:22:23.153Z,101409.34
2022-12-03T06:27:26.044Z,101411.71
2022-12-03T06:32:28.833Z,101413.10
2022-12-03T06:37:31.650Z,101412.60
2022-12-03T06:42:34.337Z,101412.77
2022-12-03T06:47:37.753Z,101405.58
2022-12-03T06:52:40.567Z,101403.52
2022-12-03T06:57:43.497Z,101402.96
2022-12-03T07:02:46.309Z,101405.06
2022-12-03T07:07:52.246Z,101400.39
2022-12-03T07:12:55.253Z,101397.56
2022-12-03T07:17:58.159Z,101397.95
2022-12-03T07:23:00.980Z,101397.08
2022-12-03T07:28:03.919Z,101395.16
2022-12-03T07:33:06.667Z,101391.91
2022-12-03T07:38:09.399Z,101394.52
2022-12-03T07:43:12.106Z,101388.55
2022-12-03T07:48:14.992Z,101387.28
2022-12-03T07:53:18.069Z,101388.06
2022-12-03T07:58:20.847Z,101389.76
2022-12-03T08:03:23.874Z,101387.52
2022-12-03T08:08:26.606Z,101385.48
2022-12-03T08:13:29.449Z,101388.92
2022-12-03T08:18:33.110Z,101395.60
2022-12-03T08:23:36.641Z,101394.28
2022-12-03T08:28:39.532Z,101397.45
2022-12-03T08:33:42.343Z,101395.25
2022-12-03T08:38:50.590Z,101394.20
2022-12-03T08:43:53.265Z,101394.90
2022-12-03T08:48:56.062Z,101387.27
2022-12-03T08:54:04.593Z,101389.20
2022-12-03T08:59:29.670Z,101389.23
2022-12-03T09:04:46.278Z,101384.86
2022-12-03T09:09:49.060Z,101383.58
2022-12-03T09:14:52.120Z,101378.82
2022-12-03T09:19:55.370Z,101383.13
2022-12-03T09:24:58.273Z,101383.52
2022-12-03T09:30:01.179Z,101381.69
2022-12-03T09:35:04.991Z,101381.91
2022-12-03T09:40:09.352Z,101378.61
2022-12-03T09:45:14.759Z,101373.02
2022-12-03T09:50:23.568Z,101372.23
2022-12-03T09:55:28.747Z,101373.17
2022-12-03T10:00:32.199Z,101368.70
2022-12-03T10:05:35.229Z,101361.82
2022-12-03T10:10:41.104Z,101361.80
2022-12-03T10:15:43.925Z,101358.66
2022-12-03T10:20:47.216Z,101353.85
2022-12-03T10:25:56.265Z,101353.04
2022-12-03T10:31:00.815Z,101351.43
2022-12-03T10:36:25.317Z,101350.85
2022-12-03T10:41:29.246Z,101353.45
2022-12-03T10:46:32.334Z,101351.58
2022-12-03T10:51:35.741Z,101349.15
2022-12-03T10:56:38.574Z,101346.92
2022-12-03T11:01:42.049Z,101345.81
2022-12-03T11:06:45.200Z,101342.75
2022-12-03T11:11:49.437Z,101340.29
2022-12-03T11:16:52.137Z,101336.71
2022-12-03T11:22:05.024Z,101327.85
2022-12-03T11:27:17.900Z,101324.36
2022-12-03T11:32:39.555Z,101319.41
2022-12-03T11:37:42.665Z,101312.59
2022-12-03T11:42:47.455Z,101305.85
2022-12-03T11:47:59.738Z,101302.80
2022-12-03T11:53:23.866Z,101304.39
2022-12-03T11:58:31.245Z,101299.06
2022-12-03T12:03:44.308Z,101292.38
2022-12-03T12:08:57.797Z,101293.23
2022-12-03T12:14:07.608Z,101292.73
2022-12-03T12:19:43.371Z,101294.52
2022-12-03T12:24:48.342Z,101291.48
2022-12-03T12:30:14.109Z,101288.05
2022-12-03T12:35:22.905Z,101285.46
2022-12-03T12:40:29.069Z,101287.33
2022-12-03T12:45:36.411Z,101287.16
2022-12-03T12:50:41.017Z,101286.63
2022-12-03T12:55:43.861Z,101289.26
2022-12-03T13:01:19.488Z,101285.34
2022-12-03T13:06:31.356Z,101297.36
2022-12-03T13:11:42.085Z,101296.35
2022-12-03T13:16:47.260Z,101290.38
2022-12-03T13:21:52.770Z,101287.72
2022-12-03T13:26:56.283Z,101281.45
2022-12-03T13:32:01.974Z,101282.73
2022-12-03T13:37:14.260Z,101283.98
2022-12-03T13:42:41.648Z,101279.20
2022-12-03T13:47:49.662Z,101278.81
2022-12-03T13:52:53.218Z,101277.79
2022-12-03T13:57:56.667Z,101278.13
2022-12-03T14:02:59.502Z,101277.50
2022-12-03T14:08:02.532Z,101279.45
2022-12-03T14:13:05.720Z,101279.30
2022-12-03T14:18:08.441Z,101282.94
2022-12-03T14:23:11.224Z,101289.16
2022-12-03T14:28:14.024Z,101287.19
2022-12-03T14:33:16.824Z,101286.84
2022-12-03T14:38:20.158Z,101285.77
2022-12-03T14:43:23.072Z,101290.31
2022-12-03T14:48:27.705Z,101285.02
2022-12-03T14:53:30.413Z,101278.41
2022-12-03T14:58:34.415Z,101278.75
2022-12-03T15:03:37.102Z,101270.23
2022-12-03T15:08:40.021Z,101265.98
2022-12-03T15:13:42.823Z,101257.29
2022-12-03T15:18:45.587Z,101254.33
2022-12-03T15:23:48.423Z,101266.56
2022-12-03T15:28:51.429Z,101269.32
2022-12-03T15:33:54.123Z,101271.34
2022-12-03T15:38:57.755Z,101274.88
2022-12-03T15:44:02.172Z,101270.61
2022-12-03T15:49:04.992Z,101275.39
2022-12-03T15:54:07.735Z,101274.89
2022-12-03T15:59:10.596Z,101273.02
2022-12-03T16:04:13.325Z,101275.92
2022-12-03T16:09:16.058Z,101277.98
2022-12-03T16:14:20.844Z,101279.21
2022-12-03T16:19:23.569Z,101275.65
2022-12-03T16:24:26.452Z,101278.23
2022-12-03T16:29:29.412Z,101279.96
2022-12-03T16:34:32.200Z,101280.33
2022-12-03T16:39:35.021Z,101280.33
2022-12-03T16:44:58.236Z,101277.45
2022-12-03T16:50:03.086Z,101285.98
2022-12-03T16:55:06.756Z,101294.67
2022-12-03T17:00:10.557Z,101296.89
2022-12-03T17:05:13.329Z,101297.61
2022-12-03T17:10:16.455Z,101295.92
2022-12-03T17:15:19.665Z,101296.78
2022-12-03T17:20:22.557Z,101284.54
2022-12-03T17:25:25.693Z,101286.27
2022-12-03T17:30:28.409Z,101291.89
2022-12-03T17:35:31.576Z,101291.60
2022-12-03T17:40:34.293Z,101292.81
2022-12-03T17:45:37.084Z,101295.02
2022-12-03T17:50:39.983Z,101298.30
2022-12-03T17:55:45.054Z,101289.80
2022-12-03T18:00:48.657Z,101287.42
2022-12-03T18:05:51.384Z,101289.46
2022-12-03T18:10:54.466Z,101294.77
2022-12-03T18:15:57.827Z,101296.00
2022-12-03T18:21:04.690Z,101290.90
2022-12-03T18:26:08.057Z,101290.42
2022-12-03T18:31:15.277Z,101291.29
2022-12-03T18:36:24.849Z,101292.48
2022-12-03T18:41:28.103Z,101293.88
2022-12-03T18:46:52.297Z,101291.36
2022-12-03T18:51:59.032Z,101284.42
2022-12-03T18:57:02.486Z,101287.19
2022-12-03T19:02:06.905Z,101286.90
2022-12-03T19:07:11.521Z,101281.30
2022-12-03T19:12:14.862Z,101275.50
2022-12-03T19:17:17.991Z,101279.10
2022-12-03T19:22:21.396Z,101287.50
2022-12-03T19:27:24.212Z,101286.03
2022-12-03T19:32:26.922Z,101290.06
2022-12-03T19:37:32.881Z,101295.61
2022-12-03T19:42:35.895Z,101296.00
2022-12-03T19:47:38.698Z,101295.16
2022-12-03T19:52:41.498Z,101296.86
2022-12-03T19:57:44.223Z,101298.27
2022-12-03T20:02:49.985Z,101304.79
2022-12-03T20:07:53.019Z,101303.98
2022-12-03T20:12:55.896Z,101307.77
2022-12-03T20:17:58.678Z,101307.11
2022-12-03T20:23:01.744Z,101302.81
2022-12-03T20:28:04.588Z,101300.42
2022-12-03T20:33:07.364Z,101298.36
2022-12-03T20:38:10.072Z,101301.61
2022-12-03T20:43:12.907Z,101303.02
2022-12-03T20:48:16.109Z,101305.64
2022-12-03T20:53:24.773Z,101299.17
2022-12-03T20:58:29.719Z,101299.17
2022-12-03T21:03:32.492Z,101298.33
2022-12-03T21:08:41.603Z,101299.02
2022-12-03T21:13:45.864Z,101289.80
2022-12-03T21:18:49.014Z,101291.56
2022-12-03T21:23:52.847Z,101296.42
2022-12-03T21:28:56.338Z,101284.68
2022-12-03T21:33:59.243Z,101280.42
2022-12-03T21:39:02.037Z,101277.32
2022-12-03T21:44:04.862Z,101274.91
2022-12-03T21:49:07.652Z,101273.85
2022-12-03T21:54:10.561Z,101275.40
2022-12-03T21:59:13.299Z,101275.92
2022-12-03T22:04:16.026Z,101277.11
2022-12-03T22:09:23.237Z,101286.34
2022-12-03T22:14:30.192Z,101295.23
2022-12-03T22:19:33.590Z,101293.70
2022-12-03T22:24:36.367Z,101292.17
2022-12-03T22:29:39.675Z,101282.27
2022-12-03T22:34:42.482Z,101288.09
2022-12-03T22:39:45.438Z,101290.34
2022-12-03T22:44:48.186Z,101288.48
2022-12-03T22:49:50.930Z,101281.49
2022-12-03T22:54:53.701Z,101278.08
2022-12-03T22:59:56.727Z,101280.33
2022-12-03T23:04:59.958Z,101284.26
2022-12-03T23:10:02.708Z,101283.77
2022-12-03T23:15:06.470Z,101282.09
2022-12-03T23:20:10.163Z,101280.73
2022-12-03T23:25:13.074Z,101283.30
2022-12-03T23:30:16.867Z,101278.85
2022-12-03T23:35:19.583Z,101267.05
2022-12-03T23:40:22.487Z,101276.46
2022-12-03T23:45:25.311Z,101277.48
2022-12-03T23:50:28.605Z,101273.23
2022-12-03T23:55:31.357Z,101276.98
